sensor_id;sensor_type;location;lat;lon;timestamp;P1;durP1;ratioP1;P2;durP2;ratioP2
12224;SDS011;6175;50.956;11.064;2024-03-08T00:01:49;20.80;;;14.77;;
12224;SDS011;6175;50.956;11.064;2024-03-08T00:04:18;16.70;;;12.57;;
12224;SDS011;6175;50.956;11.064;2024-03-08T00:06:45;17.65;;;14.93;;
12224;SDS011;6175;50.956;11.064;2024-03-08T00:09:12;20.80;;;15.77;;
12224;SDS011;6175;50.956;11.064;2024-03-08T00:11:40;18.88;;;14.98;;
12224;SDS011;6175;50.956;11.064;2024-03-08T00:14:07;20.80;;;14.87;;
12224;SDS011;6175;50.956;11.064;2024-03-08T00:16:34;20.97;;;15.37;;
12224;SDS011;6175;50.956;11.064;2024-03-08T00:19:02;22.02;;;15.32;;
12224;SDS011;6175;50.956;11.064;2024-03-08T00:21:30;20.67;;;15.88;;
12224;SDS011;6175;50.956;11.064;2024-03-08T00:23:57;20.30;;;15.45;;
12224;SDS011;6175;50.956;11.064;2024-03-08T00:26:24;21.10;;;16.00;;
12224;SDS011;6175;50.956;11.064;2024-03-08T00:28:51;19.88;;;15.70;;
12224;SDS011;6175;50.956;11.064;2024-03-08T00:31:18;21.33;;;15.73;;
12224;SDS011;6175;50.956;11.064;2024-03-08T00:33:46;21.80;;;15.80;;
12224;SDS011;6175;50.956;11.064;2024-03-08T00:36:13;20.02;;;15.45;;
12224;SDS011;6175;50.956;11.064;2024-03-08T00:38:41;22.40;;;16.03;;
12224;SDS011;6175;50.956;11.064;2024-03-08T00:41:08;21.07;;;15.07;;
12224;SDS011;6175;50.956;11.064;2024-03-08T00:43:35;18.20;;;14.60;;
12224;SDS011;6175;50.956;11.064;2024-03-08T00:46:02;19.83;;;15.13;;
12224;SDS011;6175;50.956;11.064;2024-03-08T00:48:30;19.95;;;15.13;;
12224;SDS011;6175;50.956;11.064;2024-03-08T00:50:57;21.40;;;15.57;;
12224;SDS011;6175;50.956;11.064;2024-03-08T00:53:24;19.05;;;14.95;;
12224;SDS011;6175;50.956;11.064;2024-03-08T00:55:52;19.17;;;15.18;;
12224;SDS011;6175;50.956;11.064;2024-03-08T00:58:20;20.73;;;16.20;;
12224;SDS011;6175;50.956;11.064;2024-03-08T01:00:48;20.17;;;15.33;;
12224;SDS011;6175;50.956;11.064;2024-03-08T01:03:15;24.07;;;16.10;;
12224;SDS011;6175;50.956;11.064;2024-03-08T01:05:43;21.03;;;16.43;;
12224;SDS011;6175;50.956;11.064;2024-03-08T01:08:10;21.00;;;15.87;;
12224;SDS011;6175;50.956;11.064;2024-03-08T01:10:37;20.07;;;16.30;;
12224;SDS011;6175;50.956;11.064;2024-03-08T01:13:06;22.77;;;16.67;;
12224;SDS011;6175;50.956;11.064;2024-03-08T01:15:34;21.80;;;16.40;;
12224;SDS011;6175;50.956;11.064;2024-03-08T01:18:01;21.10;;;16.10;;
12224;SDS011;6175;50.956;11.064;2024-03-08T01:20:29;21.40;;;16.00;;
12224;SDS011;6175;50.956;11.064;2024-03-08T01:22:56;19.90;;;15.87;;
12224;SDS011;6175;50.956;11.064;2024-03-08T01:25:23;20.53;;;15.83;;
12224;SDS011;6175;50.956;11.064;2024-03-08T01:27:50;24.00;;;18.27;;
12224;SDS011;6175;50.956;11.064;2024-03-08T01:30:20;22.17;;;16.77;;
12224;SDS011;6175;50.956;11.064;2024-03-08T01:32:47;24.57;;;17.53;;
12224;SDS011;6175;50.956;11.064;2024-03-08T01:35:14;26.00;;;17.77;;
12224;SDS011;6175;50.956;11.064;2024-03-08T01:37:41;23.50;;;17.53;;
12224;SDS011;6175;50.956;11.064;2024-03-08T01:40:08;20.37;;;16.37;;
12224;SDS011;6175;50.956;11.064;2024-03-08T01:42:36;23.80;;;17.43;;
12224;SDS011;6175;50.956;11.064;2024-03-08T01:45:04;23.23;;;17.30;;
12224;SDS011;6175;50.956;11.064;2024-03-08T01:47:32;21.17;;;16.73;;
12224;SDS011;6175;50.956;11.064;2024-03-08T01:49:59;20.90;;;15.70;;
12224;SDS011;6175;50.956;11.064;2024-03-08T01:52:28;22.23;;;16.10;;
12224;SDS011;6175;50.956;11.064;2024-03-08T01:54:56;19.93;;;16.13;;
12224;SDS011;6175;50.956;11.064;2024-03-08T01:57:25;20.10;;;16.50;;
12224;SDS011;6175;50.956;11.064;2024-03-08T01:59:52;19.37;;;15.53;;
12224;SDS011;6175;50.956;11.064;2024-03-08T02:02:20;22.13;;;16.20;;
12224;SDS011;6175;50.956;11.064;2024-03-08T02:04:49;20.83;;;16.37;;
12224;SDS011;6175;50.956;11.064;2024-03-08T02:07:17;22.30;;;16.77;;
12224;SDS011;6175;50.956;11.064;2024-03-08T02:09:45;24.07;;;17.67;;
12224;SDS011;6175;50.956;11.064;2024-03-08T02:12:12;24.13;;;18.07;;
12224;SDS011;6175;50.956;11.064;2024-03-08T02:14:39;26.37;;;18.23;;
12224;SDS011;6175;50.956;11.064;2024-03-08T02:17:06;21.87;;;16.30;;
12224;SDS011;6175;50.956;11.064;2024-03-08T02:19:33;22.00;;;17.30;;
12224;SDS011;6175;50.956;11.064;2024-03-08T02:22:02;21.03;;;16.50;;
12224;SDS011;6175;50.956;11.064;2024-03-08T02:24:30;21.77;;;16.07;;
12224;SDS011;6175;50.956;11.064;2024-03-08T02:26:58;23.43;;;17.37;;
12224;SDS011;6175;50.956;11.064;2024-03-08T02:29:25;24.87;;;18.63;;
12224;SDS011;6175;50.956;11.064;2024-03-08T02:31:52;21.13;;;16.87;;
12224;SDS011;6175;50.956;11.064;2024-03-08T02:34:20;22.03;;;17.20;;
12224;SDS011;6175;50.956;11.064;2024-03-08T02:36:47;23.27;;;18.00;;
12224;SDS011;6175;50.956;11.064;2024-03-08T02:39:16;26.77;;;18.83;;
12224;SDS011;6175;50.956;11.064;2024-03-08T02:41:44;24.43;;;18.47;;
12224;SDS011;6175;50.956;11.064;2024-03-08T02:44:11;28.63;;;20.50;;
12224;SDS011;6175;50.956;11.064;2024-03-08T02:46:40;25.93;;;19.20;;
12224;SDS011;6175;50.956;11.064;2024-03-08T02:49:07;24.37;;;18.87;;
12224;SDS011;6175;50.956;11.064;2024-03-08T02:51:34;25.63;;;18.53;;
12224;SDS011;6175;50.956;11.064;2024-03-08T02:54:01;25.53;;;18.50;;
12224;SDS011;6175;50.956;11.064;2024-03-08T02:56:30;25.23;;;18.47;;
12224;SDS011;6175;50.956;11.064;2024-03-08T02:58:59;23.17;;;17.53;;
12224;SDS011;6175;50.956;11.064;2024-03-08T03:01:27;23.47;;;18.30;;
12224;SDS011;6175;50.956;11.064;2024-03-08T03:03:54;21.93;;;17.10;;
12224;SDS011;6175;50.956;11.064;2024-03-08T03:06:21;24.43;;;18.43;;
12224;SDS011;6175;50.956;11.064;2024-03-08T03:08:48;22.93;;;17.73;;
12224;SDS011;6175;50.956;11.064;2024-03-08T03:11:16;24.77;;;17.50;;
12224;SDS011;6175;50.956;11.064;2024-03-08T03:13:44;25.10;;;18.40;;
12224;SDS011;6175;50.956;11.064;2024-03-08T03:16:16;23.40;;;18.07;;
12224;SDS011;6175;50.956;11.064;2024-03-08T03:18:44;23.20;;;17.80;;
12224;SDS011;6175;50.956;11.064;2024-03-08T03:21:11;25.47;;;19.00;;
12224;SDS011;6175;50.956;11.064;2024-03-08T03:23:38;24.23;;;19.03;;
12224;SDS011;6175;50.956;11.064;2024-03-08T03:26:07;21.90;;;17.10;;
12224;SDS011;6175;50.956;11.064;2024-03-08T03:28:36;24.87;;;17.77;;
12224;SDS011;6175;50.956;11.064;2024-03-08T03:31:06;22.93;;;17.60;;
12224;SDS011;6175;50.956;11.064;2024-03-08T03:33:33;25.17;;;19.10;;
12224;SDS011;6175;50.956;11.064;2024-03-08T03:36:01;23.00;;;18.27;;
12224;SDS011;6175;50.956;11.064;2024-03-08T03:38:30;25.23;;;18.90;;
12224;SDS011;6175;50.956;11.064;2024-03-08T03:40:57;27.67;;;18.90;;
12224;SDS011;6175;50.956;11.064;2024-03-08T03:43:31;29.47;;;20.43;;
12224;SDS011;6175;50.956;11.064;2024-03-08T03:45:58;24.00;;;18.43;;
12224;SDS011;6175;50.956;11.064;2024-03-08T03:48:27;25.67;;;18.63;;
12224;SDS011;6175;50.956;11.064;2024-03-08T03:50:54;24.67;;;18.60;;
12224;SDS011;6175;50.956;11.064;2024-03-08T03:53:21;24.37;;;18.03;;
12224;SDS011;6175;50.956;11.064;2024-03-08T03:55:48;27.50;;;20.67;;
12224;SDS011;6175;50.956;11.064;2024-03-08T03:58:15;29.03;;;21.43;;
12224;SDS011;6175;50.956;11.064;2024-03-08T04:00:47;26.20;;;20.13;;
12224;SDS011;6175;50.956;11.064;2024-03-08T04:03:14;27.77;;;20.37;;
12224;SDS011;6175;50.956;11.064;2024-03-08T04:05:43;26.80;;;20.20;;
12224;SDS011;6175;50.956;11.064;2024-03-08T04:08:10;28.90;;;20.73;;
12224;SDS011;6175;50.956;11.064;2024-03-08T04:10:38;25.50;;;18.30;;
12224;SDS011;6175;50.956;11.064;2024-03-08T04:13:06;26.17;;;19.47;;
12224;SDS011;6175;50.956;11.064;2024-03-08T04:15:34;27.57;;;19.57;;
12224;SDS011;6175;50.956;11.064;2024-03-08T04:18:03;29.10;;;20.83;;
12224;SDS011;6175;50.956;11.064;2024-03-08T04:20:30;27.90;;;19.37;;
12224;SDS011;6175;50.956;11.064;2024-03-08T04:22:58;24.60;;;19.57;;
12224;SDS011;6175;50.956;11.064;2024-03-08T04:25:25;28.90;;;20.93;;
12224;SDS011;6175;50.956;11.064;2024-03-08T04:27:53;26.23;;;19.97;;
12224;SDS011;6175;50.956;11.064;2024-03-08T04:30:20;29.37;;;22.17;;
12224;SDS011;6175;50.956;11.064;2024-03-08T04:32:47;28.03;;;21.33;;
12224;SDS011;6175;50.956;11.064;2024-03-08T04:35:15;28.80;;;20.47;;
12224;SDS011;6175;50.956;11.064;2024-03-08T04:37:42;27.83;;;19.73;;
12224;SDS011;6175;50.956;11.064;2024-03-08T04:40:11;26.77;;;19.90;;
12224;SDS011;6175;50.956;11.064;2024-03-08T04:42:39;30.03;;;21.03;;
12224;SDS011;6175;50.956;11.064;2024-03-08T04:45:08;27.37;;;20.23;;
12224;SDS011;6175;50.956;11.064;2024-03-08T04:47:36;26.27;;;20.33;;
12224;SDS011;6175;50.956;11.064;2024-03-08T04:50:03;28.40;;;19.63;;
12224;SDS011;6175;50.956;11.064;2024-03-08T04:52:30;27.27;;;19.80;;
12224;SDS011;6175;50.956;11.064;2024-03-08T04:54:57;26.23;;;19.83;;
12224;SDS011;6175;50.956;11.064;2024-03-08T04:57:26;27.23;;;20.40;;
12224;SDS011;6175;50.956;11.064;2024-03-08T04:59:53;27.87;;;20.30;;
12224;SDS011;6175;50.956;11.064;2024-03-08T05:02:20;31.40;;;21.50;;
12224;SDS011;6175;50.956;11.064;2024-03-08T05:04:47;29.50;;;20.13;;
12224;SDS011;6175;50.956;11.064;2024-03-08T05:07:14;32.30;;;21.83;;
12224;SDS011;6175;50.956;11.064;2024-03-08T05:09:42;29.43;;;22.13;;
12224;SDS011;6175;50.956;11.064;2024-03-08T05:12:16;30.27;;;21.03;;
12224;SDS011;6175;50.956;11.064;2024-03-08T05:14:44;29.67;;;20.37;;
12224;SDS011;6175;50.956;11.064;2024-03-08T05:17:14;31.27;;;22.03;;
12224;SDS011;6175;50.956;11.064;2024-03-08T05:19:42;29.13;;;20.63;;
12224;SDS011;6175;50.956;11.064;2024-03-08T05:22:09;28.90;;;21.00;;
12224;SDS011;6175;50.956;11.064;2024-03-08T05:24:36;28.70;;;20.60;;
12224;SDS011;6175;50.956;11.064;2024-03-08T05:27:03;28.93;;;20.03;;
12224;SDS011;6175;50.956;11.064;2024-03-08T05:29:31;25.77;;;19.70;;
12224;SDS011;6175;50.956;11.064;2024-03-08T05:31:59;26.97;;;20.67;;
12224;SDS011;6175;50.956;11.064;2024-03-08T05:34:28;29.87;;;21.30;;
12224;SDS011;6175;50.956;11.064;2024-03-08T05:36:55;29.27;;;21.03;;
12224;SDS011;6175;50.956;11.064;2024-03-08T05:39:23;28.20;;;20.80;;
12224;SDS011;6175;50.956;11.064;2024-03-08T05:41:50;32.70;;;22.67;;
12224;SDS011;6175;50.956;11.064;2024-03-08T05:44:17;30.73;;;21.67;;
12224;SDS011;6175;50.956;11.064;2024-03-08T05:46:44;28.90;;;20.80;;
12224;SDS011;6175;50.956;11.064;2024-03-08T05:49:14;28.47;;;21.13;;
12224;SDS011;6175;50.956;11.064;2024-03-08T05:51:41;28.40;;;21.40;;
12224;SDS011;6175;50.956;11.064;2024-03-08T05:54:08;29.87;;;21.83;;
12224;SDS011;6175;50.956;11.064;2024-03-08T05:56:36;29.23;;;21.60;;
12224;SDS011;6175;50.956;11.064;2024-03-08T05:59:03;31.40;;;22.63;;
12224;SDS011;6175;50.956;11.064;2024-03-08T06:01:30;34.93;;;22.40;;
12224;SDS011;6175;50.956;11.064;2024-03-08T06:04:01;29.73;;;21.50;;
12224;SDS011;6175;50.956;11.064;2024-03-08T06:06:29;31.87;;;23.37;;
12224;SDS011;6175;50.956;11.064;2024-03-08T06:08:57;29.97;;;20.97;;
12224;SDS011;6175;50.956;11.064;2024-03-08T06:11:24;33.17;;;23.13;;
12224;SDS011;6175;50.956;11.064;2024-03-08T06:13:53;33.80;;;23.37;;
12224;SDS011;6175;50.956;11.064;2024-03-08T06:16:24;34.33;;;24.23;;
12224;SDS011;6175;50.956;11.064;2024-03-08T06:18:54;34.23;;;23.73;;
12224;SDS011;6175;50.956;11.064;2024-03-08T06:21:22;33.37;;;23.40;;
12224;SDS011;6175;50.956;11.064;2024-03-08T06:23:53;30.17;;;22.43;;
12224;SDS011;6175;50.956;11.064;2024-03-08T06:26:22;34.63;;;24.30;;
12224;SDS011;6175;50.956;11.064;2024-03-08T06:28:49;38.07;;;24.67;;
12224;SDS011;6175;50.956;11.064;2024-03-08T06:31:16;31.40;;;22.87;;
12224;SDS011;6175;50.956;11.064;2024-03-08T06:33:44;34.43;;;26.00;;
12224;SDS011;6175;50.956;11.064;2024-03-08T06:36:15;32.83;;;24.03;;
12224;SDS011;6175;50.956;11.064;2024-03-08T06:38:43;34.57;;;24.43;;
12224;SDS011;6175;50.956;11.064;2024-03-08T06:41:12;37.00;;;24.57;;
12224;SDS011;6175;50.956;11.064;2024-03-08T06:43:41;34.20;;;23.90;;
12224;SDS011;6175;50.956;11.064;2024-03-08T06:46:08;36.47;;;25.37;;
12224;SDS011;6175;50.956;11.064;2024-03-08T06:48:37;34.90;;;25.67;;
12224;SDS011;6175;50.956;11.064;2024-03-08T06:51:04;37.67;;;25.70;;
12224;SDS011;6175;50.956;11.064;2024-03-08T06:53:32;34.40;;;24.63;;
12224;SDS011;6175;50.956;11.064;2024-03-08T06:56:00;36.17;;;25.47;;
12224;SDS011;6175;50.956;11.064;2024-03-08T06:58:28;33.13;;;24.87;;
12224;SDS011;6175;50.956;11.064;2024-03-08T07:00:55;34.27;;;25.23;;
12224;SDS011;6175;50.956;11.064;2024-03-08T07:03:25;34.20;;;25.00;;
12224;SDS011;6175;50.956;11.064;2024-03-08T07:05:54;43.10;;;28.20;;
12224;SDS011;6175;50.956;11.064;2024-03-08T07:08:21;39.93;;;28.57;;
12224;SDS011;6175;50.956;11.064;2024-03-08T07:10:48;33.97;;;25.10;;
12224;SDS011;6175;50.956;11.064;2024-03-08T07:13:16;38.63;;;28.13;;
12224;SDS011;6175;50.956;11.064;2024-03-08T07:15:44;35.53;;;26.13;;
12224;SDS011;6175;50.956;11.064;2024-03-08T07:18:11;39.67;;;27.93;;
12224;SDS011;6175;50.956;11.064;2024-03-08T07:20:40;33.97;;;24.97;;
12224;SDS011;6175;50.956;11.064;2024-03-08T07:23:08;41.13;;;27.00;;
12224;SDS011;6175;50.956;11.064;2024-03-08T07:25:35;36.77;;;26.50;;
12224;SDS011;6175;50.956;11.064;2024-03-08T07:28:04;37.50;;;25.63;;
12224;SDS011;6175;50.956;11.064;2024-03-08T07:30:32;39.88;;;28.38;;
12224;SDS011;6175;50.956;11.064;2024-03-08T07:33:18;35.85;;;25.75;;
12224;SDS011;6175;50.956;11.064;2024-03-08T07:35:47;38.45;;;25.85;;
12224;SDS011;6175;50.956;11.064;2024-03-08T07:38:15;37.73;;;27.00;;
12224;SDS011;6175;50.956;11.064;2024-03-08T07:40:46;36.42;;;25.67;;
12224;SDS011;6175;50.956;11.064;2024-03-08T07:43:13;34.70;;;24.77;;
12224;SDS011;6175;50.956;11.064;2024-03-08T07:45:40;36.40;;;26.55;;
12224;SDS011;6175;50.956;11.064;2024-03-08T07:48:07;33.55;;;24.88;;
12224;SDS011;6175;50.956;11.064;2024-03-08T07:50:37;35.20;;;25.48;;
12224;SDS011;6175;50.956;11.064;2024-03-08T07:53:05;34.67;;;25.30;;
12224;SDS011;6175;50.956;11.064;2024-03-08T07:55:32;35.58;;;26.80;;
12224;SDS011;6175;50.956;11.064;2024-03-08T07:58:00;37.58;;;27.15;;
12224;SDS011;6175;50.956;11.064;2024-03-08T08:00:27;35.10;;;25.70;;
12224;SDS011;6175;50.956;11.064;2024-03-08T08:02:56;39.20;;;27.93;;
12224;SDS011;6175;50.956;11.064;2024-03-08T08:05:23;37.22;;;26.23;;
12224;SDS011;6175;50.956;11.064;2024-03-08T08:07:52;36.72;;;26.05;;
12224;SDS011;6175;50.956;11.064;2024-03-08T08:10:19;37.58;;;26.17;;
12224;SDS011;6175;50.956;11.064;2024-03-08T08:12:47;37.50;;;27.17;;
12224;SDS011;6175;50.956;11.064;2024-03-08T08:15:15;37.15;;;26.05;;
12224;SDS011;6175;50.956;11.064;2024-03-08T08:17:42;36.25;;;26.13;;
12224;SDS011;6175;50.956;11.064;2024-03-08T08:20:10;39.83;;;28.10;;
12224;SDS011;6175;50.956;11.064;2024-03-08T08:22:38;35.65;;;26.50;;
12224;SDS011;6175;50.956;11.064;2024-03-08T08:25:07;37.75;;;26.30;;
12224;SDS011;6175;50.956;11.064;2024-03-08T08:27:37;40.92;;;28.23;;
12224;SDS011;6175;50.956;11.064;2024-03-08T08:30:05;36.85;;;25.92;;
12224;SDS011;6175;50.956;11.064;2024-03-08T08:32:33;37.65;;;25.98;;
12224;SDS011;6175;50.956;11.064;2024-03-08T08:35:01;32.80;;;25.00;;
12224;SDS011;6175;50.956;11.064;2024-03-08T08:37:29;36.15;;;25.80;;
12224;SDS011;6175;50.956;11.064;2024-03-08T08:39:56;37.20;;;25.85;;
12224;SDS011;6175;50.956;11.064;2024-03-08T08:42:25;40.97;;;30.02;;
12224;SDS011;6175;50.956;11.064;2024-03-08T08:44:53;35.25;;;26.13;;
12224;SDS011;6175;50.956;11.064;2024-03-08T08:47:22;35.90;;;26.33;;
12224;SDS011;6175;50.956;11.064;2024-03-08T08:49:49;36.90;;;25.92;;
12224;SDS011;6175;50.956;11.064;2024-03-08T08:52:17;35.58;;;25.88;;
12224;SDS011;6175;50.956;11.064;2024-03-08T08:54:44;33.38;;;25.05;;
12224;SDS011;6175;50.956;11.064;2024-03-08T08:57:11;34.78;;;25.27;;
12224;SDS011;6175;50.956;11.064;2024-03-08T08:59:40;31.73;;;24.10;;
12224;SDS011;6175;50.956;11.064;2024-03-08T09:02:07;32.70;;;24.00;;
12224;SDS011;6175;50.956;11.064;2024-03-08T09:04:34;31.75;;;23.77;;
12224;SDS011;6175;50.956;11.064;2024-03-08T09:07:02;33.65;;;23.50;;
12224;SDS011;6175;50.956;11.064;2024-03-08T09:09:31;31.85;;;23.58;;
12224;SDS011;6175;50.956;11.064;2024-03-08T09:11:58;32.42;;;23.48;;
12224;SDS011;6175;50.956;11.064;2024-03-08T09:14:26;30.10;;;22.27;;
12224;SDS011;6175;50.956;11.064;2024-03-08T09:16:54;31.58;;;22.98;;
12224;SDS011;6175;50.956;11.064;2024-03-08T09:19:21;29.00;;;22.02;;
12224;SDS011;6175;50.956;11.064;2024-03-08T09:21:51;31.08;;;22.55;;
12224;SDS011;6175;50.956;11.064;2024-03-08T09:24:18;30.45;;;23.15;;
12224;SDS011;6175;50.956;11.064;2024-03-08T09:26:45;32.38;;;23.50;;
12224;SDS011;6175;50.956;11.064;2024-03-08T09:29:12;32.92;;;24.45;;
12224;SDS011;6175;50.956;11.064;2024-03-08T09:31:40;29.70;;;22.75;;
12224;SDS011;6175;50.956;11.064;2024-03-08T09:34:09;33.08;;;23.85;;
12224;SDS011;6175;50.956;11.064;2024-03-08T09:36:36;31.63;;;22.58;;
12224;SDS011;6175;50.956;11.064;2024-03-08T09:39:03;33.47;;;23.95;;
12224;SDS011;6175;50.956;11.064;2024-03-08T09:41:32;31.33;;;23.23;;
12224;SDS011;6175;50.956;11.064;2024-03-08T09:43:59;31.52;;;22.65;;
12224;SDS011;6175;50.956;11.064;2024-03-08T09:46:29;28.80;;;21.35;;
12224;SDS011;6175;50.956;11.064;2024-03-08T09:48:56;29.73;;;21.30;;
12224;SDS011;6175;50.956;11.064;2024-03-08T09:51:26;26.70;;;19.92;;
12224;SDS011;6175;50.956;11.064;2024-03-08T09:53:55;28.92;;;21.50;;
12224;SDS011;6175;50.956;11.064;2024-03-08T09:56:23;24.33;;;18.65;;
12224;SDS011;6175;50.956;11.064;2024-03-08T09:58:51;25.95;;;20.35;;
12224;SDS011;6175;50.956;11.064;2024-03-08T10:01:39;26.35;;;20.45;;
12224;SDS011;6175;50.956;11.064;2024-03-08T10:04:07;30.30;;;22.63;;
12224;SDS011;6175;50.956;11.064;2024-03-08T10:06:36;26.13;;;19.80;;
12224;SDS011;6175;50.956;11.064;2024-03-08T10:09:03;28.60;;;21.40;;
12224;SDS011;6175;50.956;11.064;2024-03-08T10:11:33;24.90;;;18.13;;
12224;SDS011;6175;50.956;11.064;2024-03-08T10:14:01;22.42;;;16.40;;
12224;SDS011;6175;50.956;11.064;2024-03-08T10:16:28;25.08;;;19.27;;
12224;SDS011;6175;50.956;11.064;2024-03-08T10:18:55;23.50;;;18.15;;
12224;SDS011;6175;50.956;11.064;2024-03-08T10:21:23;25.33;;;18.60;;
12224;SDS011;6175;50.956;11.064;2024-03-08T10:23:51;22.50;;;16.58;;
12224;SDS011;6175;50.956;11.064;2024-03-08T10:26:19;21.40;;;16.77;;
12224;SDS011;6175;50.956;11.064;2024-03-08T10:28:47;19.77;;;15.73;;
12224;SDS011;6175;50.956;11.064;2024-03-08T10:31:15;20.23;;;15.77;;
12224;SDS011;6175;50.956;11.064;2024-03-08T10:33:42;20.40;;;15.55;;
12224;SDS011;6175;50.956;11.064;2024-03-08T10:36:09;21.60;;;16.35;;
12224;SDS011;6175;50.956;11.064;2024-03-08T10:38:38;22.45;;;16.25;;
12224;SDS011;6175;50.956;11.064;2024-03-08T10:41:08;23.13;;;16.20;;
12224;SDS011;6175;50.956;11.064;2024-03-08T10:43:44;24.13;;;16.40;;
12224;SDS011;6175;50.956;11.064;2024-03-08T10:46:25;21.05;;;16.27;;
12224;SDS011;6175;50.956;11.064;2024-03-08T10:49:00;23.70;;;16.60;;
12224;SDS011;6175;50.956;11.064;2024-03-08T10:51:32;23.20;;;15.73;;
12224;SDS011;6175;50.956;11.064;2024-03-08T10:54:00;19.35;;;15.63;;
12224;SDS011;6175;50.956;11.064;2024-03-08T10:56:30;20.77;;;15.43;;
12224;SDS011;6175;50.956;11.064;2024-03-08T10:58:57;20.17;;;16.25;;
12224;SDS011;6175;50.956;11.064;2024-03-08T11:01:34;23.83;;;16.13;;
12224;SDS011;6175;50.956;11.064;2024-03-08T11:04:03;22.35;;;15.70;;
12224;SDS011;6175;50.956;11.064;2024-03-08T11:06:40;21.40;;;16.25;;
12224;SDS011;6175;50.956;11.064;2024-03-08T11:09:11;22.35;;;17.33;;
12224;SDS011;6175;50.956;11.064;2024-03-08T11:14:46;23.30;;;16.42;;
12224;SDS011;6175;50.956;11.064;2024-03-08T11:17:16;23.90;;;16.08;;
12224;SDS011;6175;50.956;11.064;2024-03-08T11:19:47;25.58;;;17.42;;
12224;SDS011;6175;50.956;11.064;2024-03-08T11:22:20;23.92;;;17.30;;
12224;SDS011;6175;50.956;11.064;2024-03-08T11:24:49;21.42;;;16.77;;
12224;SDS011;6175;50.956;11.064;2024-03-08T11:27:16;23.02;;;18.08;;
12224;SDS011;6175;50.956;11.064;2024-03-08T11:29:43;24.00;;;17.48;;
12224;SDS011;6175;50.956;11.064;2024-03-08T11:32:10;23.52;;;18.00;;
12224;SDS011;6175;50.956;11.064;2024-03-08T11:34:40;24.85;;;17.95;;
12224;SDS011;6175;50.956;11.064;2024-03-08T11:37:12;24.40;;;18.52;;
12224;SDS011;6175;50.956;11.064;2024-03-08T11:39:40;23.33;;;17.40;;
12224;SDS011;6175;50.956;11.064;2024-03-08T11:42:07;24.17;;;17.65;;
12224;SDS011;6175;50.956;11.064;2024-03-08T11:44:36;24.30;;;18.00;;
12224;SDS011;6175;50.956;11.064;2024-03-08T11:47:08;23.25;;;17.33;;
12224;SDS011;6175;50.956;11.064;2024-03-08T11:49:36;23.08;;;17.75;;
12224;SDS011;6175;50.956;11.064;2024-03-08T11:52:05;23.13;;;17.52;;
12224;SDS011;6175;50.956;11.064;2024-03-08T11:54:32;21.83;;;16.58;;
12224;SDS011;6175;50.956;11.064;2024-03-08T11:57:01;22.05;;;17.15;;
12224;SDS011;6175;50.956;11.064;2024-03-08T11:59:28;26.90;;;17.90;;
12224;SDS011;6175;50.956;11.064;2024-03-08T12:02:02;21.50;;;17.02;;
12224;SDS011;6175;50.956;11.064;2024-03-08T12:04:29;23.05;;;17.00;;
12224;SDS011;6175;50.956;11.064;2024-03-08T12:06:58;22.90;;;17.13;;
12224;SDS011;6175;50.956;11.064;2024-03-08T12:09:28;21.80;;;16.55;;
12224;SDS011;6175;50.956;11.064;2024-03-08T12:11:55;24.13;;;17.95;;
12224;SDS011;6175;50.956;11.064;2024-03-08T12:14:22;23.25;;;17.75;;
12224;SDS011;6175;50.956;11.064;2024-03-08T12:16:50;22.05;;;16.67;;
12224;SDS011;6175;50.956;11.064;2024-03-08T12:19:17;23.80;;;16.75;;
12224;SDS011;6175;50.956;11.064;2024-03-08T12:21:44;25.58;;;18.33;;
12224;SDS011;6175;50.956;11.064;2024-03-08T12:24:14;24.33;;;16.80;;
12224;SDS011;6175;50.956;11.064;2024-03-08T12:26:45;21.67;;;16.58;;
12224;SDS011;6175;50.956;11.064;2024-03-08T12:29:14;21.05;;;16.80;;
12224;SDS011;6175;50.956;11.064;2024-03-08T12:31:43;22.27;;;16.35;;
12224;SDS011;6175;50.956;11.064;2024-03-08T12:34:11;20.92;;;16.65;;
12224;SDS011;6175;50.956;11.064;2024-03-08T12:36:43;20.10;;;15.93;;
12224;SDS011;6175;50.956;11.064;2024-03-08T12:39:12;21.75;;;16.45;;
12224;SDS011;6175;50.956;11.064;2024-03-08T12:41:41;22.65;;;17.08;;
12224;SDS011;6175;50.956;11.064;2024-03-08T12:44:10;22.45;;;15.73;;
12224;SDS011;6175;50.956;11.064;2024-03-08T12:46:37;22.83;;;16.58;;
12224;SDS011;6175;50.956;11.064;2024-03-08T12:49:08;20.35;;;16.13;;
12224;SDS011;6175;50.956;11.064;2024-03-08T12:51:37;23.65;;;17.77;;
12224;SDS011;6175;50.956;11.064;2024-03-08T12:54:04;23.02;;;16.75;;
12224;SDS011;6175;50.956;11.064;2024-03-08T12:56:32;21.42;;;16.20;;
12224;SDS011;6175;50.956;11.064;2024-03-08T12:59:00;24.48;;;17.35;;
12224;SDS011;6175;50.956;11.064;2024-03-08T13:01:29;21.65;;;16.40;;
12224;SDS011;6175;50.956;11.064;2024-03-08T13:03:57;21.67;;;16.27;;
12224;SDS011;6175;50.956;11.064;2024-03-08T13:06:25;24.70;;;17.45;;
12224;SDS011;6175;50.956;11.064;2024-03-08T13:08:53;22.08;;;16.75;;
12224;SDS011;6175;50.956;11.064;2024-03-08T13:11:21;22.83;;;17.00;;
12224;SDS011;6175;50.956;11.064;2024-03-08T13:13:48;20.20;;;16.10;;
12224;SDS011;6175;50.956;11.064;2024-03-08T13:16:15;19.38;;;15.73;;
12224;SDS011;6175;50.956;11.064;2024-03-08T13:18:45;21.52;;;16.38;;
12224;SDS011;6175;50.956;11.064;2024-03-08T13:21:13;22.38;;;16.58;;
12224;SDS011;6175;50.956;11.064;2024-03-08T13:23:44;22.42;;;17.25;;
12224;SDS011;6175;50.956;11.064;2024-03-08T13:26:14;22.30;;;17.33;;
12224;SDS011;6175;50.956;11.064;2024-03-08T13:28:42;22.55;;;17.63;;
12224;SDS011;6175;50.956;11.064;2024-03-08T13:31:09;23.08;;;17.05;;
12224;SDS011;6175;50.956;11.064;2024-03-08T13:33:36;19.73;;;16.20;;
12224;SDS011;6175;50.956;11.064;2024-03-08T13:36:06;22.38;;;17.52;;
12224;SDS011;6175;50.956;11.064;2024-03-08T13:38:39;23.10;;;17.35;;
12224;SDS011;6175;50.956;11.064;2024-03-08T13:41:07;24.17;;;18.02;;
12224;SDS011;6175;50.956;11.064;2024-03-08T13:43:34;20.60;;;16.80;;
12224;SDS011;6175;50.956;11.064;2024-03-08T13:46:02;22.38;;;17.52;;
12224;SDS011;6175;50.956;11.064;2024-03-08T13:48:29;20.75;;;16.95;;
12224;SDS011;6175;50.956;11.064;2024-03-08T13:50:57;23.52;;;17.13;;
12224;SDS011;6175;50.956;11.064;2024-03-08T13:53:26;22.63;;;18.08;;
12224;SDS011;6175;50.956;11.064;2024-03-08T13:55:53;22.67;;;16.92;;
12224;SDS011;6175;50.956;11.064;2024-03-08T13:58:21;23.80;;;17.45;;
12224;SDS011;6175;50.956;11.064;2024-03-08T14:00:49;23.42;;;17.05;;
12224;SDS011;6175;50.956;11.064;2024-03-08T14:03:16;22.45;;;16.80;;
12224;SDS011;6175;50.956;11.064;2024-03-08T14:05:43;21.98;;;16.95;;
12224;SDS011;6175;50.956;11.064;2024-03-08T14:08:11;22.33;;;16.58;;
12224;SDS011;6175;50.956;11.064;2024-03-08T14:10:40;21.48;;;16.73;;
12224;SDS011;6175;50.956;11.064;2024-03-08T14:13:08;20.83;;;16.15;;
12224;SDS011;6175;50.956;11.064;2024-03-08T14:15:36;23.95;;;16.52;;
12224;SDS011;6175;50.956;11.064;2024-03-08T14:18:07;21.40;;;16.40;;
12224;SDS011;6175;50.956;11.064;2024-03-08T14:20:34;21.05;;;14.93;;
12224;SDS011;6175;50.956;11.064;2024-03-08T14:23:01;21.25;;;15.93;;
12224;SDS011;6175;50.956;11.064;2024-03-08T14:25:31;18.90;;;14.55;;
12224;SDS011;6175;50.956;11.064;2024-03-08T14:27:59;21.38;;;15.60;;
12224;SDS011;6175;50.956;11.064;2024-03-08T14:30:31;20.90;;;15.40;;